METAR & TAF Report
Available data for CYAM from the past 6 hours
SAULT STE MARIE, ON
Metar
CYAM 190200Z 36009KT 15SM FEW025 BKN032 OVC038 02/M02 A2955 RMK SC2SC5SC1 SLP015

02:00 UTC

Wind: 360° 9kt

Visibility: 15 SM

Sky: FEW 2500 ft

Temp: 2 deg C / 35.6 deg F

Dewpoint: -2 deg C / 28.4 deg F

Pressure: 29.55 inHg

TAF
TAF CYAM 190138Z 1902/1914 36012KT P6SM OVC030 TEMPO 1902/1906 P6SM -SHSN OVC020 FM190600 34010G20KT P6SM BKN025 TEMPO 1906/1914 5SM -SHSN BKN020 BECMG 1908/1910 34012G22KT RMK NXT FCST BY 190800Z
NOTAM

Click here for NOTAMs.